Time;durP1;ratioP1;P1;durP2;ratioP2;P2;SDS_P1;SDS_P2;PMS_P1;PMS_P2;Temp;Humidity;BMP_temperature;BMP_pressure;BME280_temperature;BME280_humidity;BME280_pressure;Samples;Min_cycle;Max_cycle;Signal;HPM_P1;HPM_P2
2022/08/31 00:04:49;;;;;;;5.22;4.28;;;34.20;98.30;;;;;;5077792;28;20215;-94
2022/08/31 00:07:20;;;;;;;8.75;5.05;;;34.30;97.20;;;;;;5077689;28;20268;-94
2022/08/31 00:09:52;;;;;;;6.50;4.60;;;34.20;96.80;;;;;;5076954;28;20211;-94
2022/08/31 00:12:24;;;;;;;9.43;5.32;;;34.20;97.80;;;;;;5076061;28;20249;-94
2022/08/31 00:14:55;;;;;;;8.63;4.75;;;34.30;97.10;;;;;;5076958;28;20675;-94
2022/08/31 00:17:26;;;;;;;6.78;5.22;;;34.30;97.30;;;;;;5076566;28;20314;-95
2022/08/31 00:19:58;;;;;;;5.60;4.45;;;34.30;96.60;;;;;;5076734;28;20616;-94
2022/08/31 00:22:29;;;;;;;5.60;5.00;;;34.10;96.50;;;;;;5075990;28;20207;-94
2022/08/31 00:25:00;;;;;;;7.05;5.05;;;34.10;96.50;;;;;;5075760;28;20611;-93
2022/08/31 00:27:33;;;;;;;6.05;5.35;;;34.10;96.30;;;;;;5076779;28;20234;-93
2022/08/31 00:30:06;;;;;;;6.68;5.40;;;34.10;96.70;;;;;;5077861;28;20212;-93
2022/08/31 00:32:37;;;;;;;8.07;5.05;;;33.80;96.10;;;;;;5076630;28;20211;-93
2022/08/31 00:35:10;;;;;;;5.18;4.65;;;33.70;96.00;;;;;;5078136;28;20211;-93
2022/08/31 00:37:41;;;;;;;5.70;5.10;;;33.60;96.60;;;;;;5080150;28;20235;-94
2022/08/31 00:40:13;;;;;;;6.47;5.45;;;33.60;96.50;;;;;;5080242;28;20211;-93
2022/08/31 00:42:47;;;;;;;7.60;5.85;;;33.60;96.10;;;;;;5080515;28;20290;-94
2022/08/31 00:45:20;;;;;;;6.07;5.45;;;33.60;95.50;;;;;;5070856;28;20212;-94
2022/08/31 00:47:53;;;;;;;6.20;5.10;;;33.50;95.70;;;;;;5066035;28;20204;-94
2022/08/31 00:55:50;;;;;;;7.63;6.03;;;33.00;95.60;;;;;;5011086;28;20662;-94
2022/08/31 00:58:36;;;;;;;6.88;5.30;;;32.90;94.80;;;;;;5011657;28;20236;-95
2022/08/31 01:01:20;;;;;;;9.75;5.88;;;32.80;95.10;;;;;;5013625;28;20353;-94
2022/08/31 01:03:53;;;;;;;7.35;5.60;;;32.80;95.20;;;;;;4994835;28;20222;-91
2022/08/31 01:06:25;;;;;;;8.88;5.65;;;32.70;94.60;;;;;;4997321;28;20214;-93
2022/08/31 01:08:59;;;;;;;6.15;5.20;;;32.60;94.70;;;;;;5009636;28;20903;-93
2022/08/31 01:14:35;;;;;;;5.65;4.90;;;32.50;95.40;;;;;;5011452;28;20225;-93
2022/08/31 01:17:08;;;;;;;7.35;5.32;;;32.50;95.80;;;;;;5012770;28;20242;-94
2022/08/31 01:19:44;;;;;;;6.13;5.53;;;32.60;96.80;;;;;;5012016;28;20214;-93
2022/08/31 01:22:23;;;;;;;6.97;5.47;;;32.80;95.50;;;;;;5016097;28;20277;-93
2022/08/31 01:24:59;;;;;;;5.90;5.30;;;32.90;95.30;;;;;;5020277;28;20185;-93
2022/08/31 01:27:39;;;;;;;8.00;5.07;;;32.80;95.50;;;;;;5000733;28;20210;-93
2022/08/31 01:30:14;;;;;;;9.25;6.40;;;32.30;95.80;;;;;;5000852;28;20222;-95
2022/08/31 01:32:54;;;;;;;7.90;5.40;;;31.90;96.70;;;;;;4996029;28;20286;-95
2022/08/31 01:35:26;;;;;;;6.70;4.95;;;31.50;98.30;;;;;;4990664;28;20222;-95
2022/08/31 01:37:58;;;;;;;6.10;5.05;;;31.00;97.70;;;;;;4986113;28;20270;-95
2022/08/31 01:40:38;;;;;;;6.32;4.82;;;30.80;98.20;;;;;;4983067;28;20214;-95
2022/08/31 01:49:00;;;;;;;5.53;5.00;;;30.40;98.90;;;;;;4995436;28;20266;-95
2022/08/31 02:00:16;;;;;;;6.28;5.10;;;29.80;99.90;;;;;;5189927;22;20306;-95
2022/08/31 02:03:01;;;;;;;7.15;5.32;;;29.60;99.90;;;;;;5137652;22;20244;-94
2022/08/31 02:05:33;;;;;;;7.85;5.13;;;29.40;99.90;;;;;;5049720;28;20204;-93
2022/08/31 02:08:16;;;;;;;8.47;5.10;;;29.20;99.90;;;;;;5073782;28;20204;-94
2022/08/31 02:40:37;;;;;;;8.47;5.77;;;27.70;99.90;;;;;;5140581;22;20247;-94
2022/08/31 02:56:35;;;;;;;10.10;5.90;;;26.60;99.90;;;;;;5108531;28;20241;-95
2022/08/31 02:59:07;;;;;;;7.93;5.37;;;26.50;99.90;;;;;;5114288;28;20724;-96
2022/08/31 03:01:41;;;;;;;6.77;5.60;;;26.40;99.90;;;;;;5097661;28;20187;-96
2022/08/31 03:04:12;;;;;;;7.20;5.90;;;26.30;99.90;;;;;;5113797;28;20194;-96
2022/08/31 03:06:43;;;;;;;9.17;5.37;;;26.20;99.90;;;;;;5098917;28;20211;-94
2022/08/31 03:09:16;;;;;;;8.53;5.70;;;26.10;99.90;;;;;;5115640;28;20194;-94
2022/08/31 03:11:50;;;;;;;9.67;5.70;;;26.00;99.90;;;;;;5098707;28;20206;-96
2022/08/31 03:14:20;;;;;;;6.90;5.27;;;25.90;99.90;;;;;;5096428;28;20541;-93
2022/08/31 03:16:51;;;;;;;6.87;5.73;;;25.70;99.90;;;;;;5096699;28;20210;-95
2022/08/31 03:19:23;;;;;;;10.47;5.43;;;25.60;99.90;;;;;;5096600;28;20223;-95
2022/08/31 03:21:55;;;;;;;7.13;5.10;;;25.50;99.90;;;;;;5085092;28;20206;-94
2022/08/31 03:27:18;;;;;;;7.87;5.90;;;25.30;99.90;;;;;;5096147;28;20222;-95
2022/08/31 03:29:52;;;;;;;5.97;4.83;;;25.20;99.90;;;;;;5097359;28;20226;-96
2022/08/31 03:32:29;;;;;;;7.73;5.50;;;25.20;99.90;;;;;;5096829;28;20199;-95
2022/08/31 03:37:59;;;;;;;7.40;5.63;;;25.00;99.90;;;;;;5092796;28;20235;-95
2022/08/31 03:40:43;;;;;;;7.47;5.07;;;24.90;99.90;;;;;;5093118;28;20210;-95
2022/08/31 03:43:20;;;;;;;6.03;5.43;;;24.80;99.90;;;;;;5089467;28;20678;-95
2022/08/31 03:45:51;;;;;;;7.83;5.17;;;24.80;99.90;;;;;;5088920;28;20568;-95
2022/08/31 03:48:27;;;;;;;7.10;5.40;;;24.80;99.90;;;;;;5090940;28;20212;-95
2022/08/31 03:51:02;;;;;;;7.93;5.40;;;24.70;99.90;;;;;;5090311;28;20247;-95
2022/08/31 03:53:36;;;;;;;9.10;6.63;;;24.60;99.90;;;;;;5087921;28;20229;-95
2022/08/31 03:56:20;;;;;;;10.07;6.30;;;24.50;99.90;;;;;;5079874;28;20239;-95
2022/08/31 03:58:54;;;;;;;6.77;5.47;;;24.40;99.90;;;;;;5084477;28;20235;-96
2022/08/31 04:01:25;;;;;;;10.73;5.40;;;24.30;99.90;;;;;;5078092;28;20216;-95
2022/08/31 04:06:43;;;;;;;12.00;5.23;;;24.30;99.90;;;;;;5091229;28;20211;-94
2022/08/31 04:09:18;;;;;;;6.83;5.00;;;24.20;99.90;;;;;;5073917;28;20261;-94
2022/08/31 04:11:53;;;;;;;9.20;5.10;;;24.20;99.90;;;;;;5064167;28;20265;-95
2022/08/31 04:20:53;;;;;;;7.03;5.23;;;24.10;99.90;;;;;;5061708;28;20196;-95
2022/08/31 04:23:28;;;;;;;7.07;5.10;;;23.90;99.90;;;;;;5063968;28;20196;-95
2022/08/31 04:26:00;;;;;;;10.80;4.80;;;23.90;99.90;;;;;;5060119;28;20207;-94
2022/08/31 04:28:31;;;;;;;5.93;4.60;;;23.80;99.90;;;;;;5061791;28;20239;-94
2022/08/31 04:31:09;;;;;;;6.43;5.03;;;23.80;99.90;;;;;;5061438;28;20537;-94
2022/08/31 04:33:45;;;;;;;5.73;4.50;;;23.80;99.90;;;;;;5060448;28;20200;-94
2022/08/31 04:36:19;;;;;;;9.10;4.90;;;23.70;99.90;;;;;;5061248;28;20238;-94
2022/08/31 04:38:53;;;;;;;10.53;4.60;;;23.70;99.90;;;;;;5060740;28;20232;-94
2022/08/31 04:41:26;;;;;;;6.43;4.90;;;23.60;99.90;;;;;;5061099;28;20215;-95
2022/08/31 04:44:00;;;;;;;5.17;4.60;;;23.60;99.90;;;;;;5061029;28;20262;-94
2022/08/31 04:46:33;;;;;;;9.90;5.20;;;23.50;99.90;;;;;;5063616;28;20239;-94
2022/08/31 04:49:09;;;;;;;6.17;4.73;;;23.50;99.90;;;;;;5062702;28;20219;-93
2022/08/31 04:51:41;;;;;;;8.13;5.13;;;23.50;99.90;;;;;;5059519;28;20232;-94
2022/08/31 04:54:14;;;;;;;8.83;4.97;;;23.40;99.90;;;;;;5060622;28;20648;-94
2022/08/31 04:56:47;;;;;;;7.10;4.83;;;23.30;99.90;;;;;;5060135;28;20235;-95
2022/08/31 04:59:24;;;;;;;6.17;5.53;;;23.30;99.90;;;;;;5060207;28;20239;-94
2022/08/31 05:01:57;;;;;;;6.97;5.20;;;23.20;99.90;;;;;;5059141;28;20239;-94
2022/08/31 05:04:31;;;;;;;6.30;5.17;;;23.10;99.90;;;;;;5059819;28;20204;-94
2022/08/31 05:07:03;;;;;;;7.93;5.10;;;23.00;99.90;;;;;;5060731;28;20208;-93
2022/08/31 05:09:38;;;;;;;6.83;4.93;;;22.90;99.90;;;;;;5066363;28;20232;-95
2022/08/31 05:12:09;;;;;;;10.43;5.40;;;22.90;99.90;;;;;;5065813;28;20261;-94
2022/08/31 05:14:42;;;;;;;8.10;4.93;;;22.80;99.90;;;;;;5064331;28;20228;-94
2022/08/31 05:17:12;;;;;;;9.80;4.97;;;22.80;99.90;;;;;;5060132;28;20273;-94
2022/08/31 05:19:46;;;;;;;5.83;4.63;;;22.70;99.90;;;;;;5056791;28;20278;-94
2022/08/31 05:22:17;;;;;;;8.70;4.80;;;22.70;99.90;;;;;;5061301;28;20201;-94
2022/08/31 05:24:49;;;;;;;9.10;5.37;;;22.70;99.90;;;;;;5059991;28;20212;-94
2022/08/31 05:27:20;;;;;;;5.73;4.70;;;22.60;99.90;;;;;;5062552;28;20216;-94
2022/08/31 05:29:51;;;;;;;7.50;5.00;;;22.60;99.90;;;;;;5064680;28;20298;-94
2022/08/31 05:32:23;;;;;;;8.73;5.43;;;22.50;99.90;;;;;;5061447;28;20200;-94
2022/08/31 05:34:56;;;;;;;9.27;5.10;;;22.50;99.90;;;;;;5062540;28;20216;-94
2022/08/31 05:37:28;;;;;;;9.57;5.00;;;22.50;99.90;;;;;;5059692;28;20220;-94
2022/08/31 05:40:00;;;;;;;9.87;5.27;;;22.50;99.90;;;;;;5062245;28;20286;-93
2022/08/31 05:42:31;;;;;;;6.40;5.07;;;22.40;99.90;;;;;;5059858;28;20291;-94
2022/08/31 05:45:03;;;;;;;9.10;5.10;;;22.40;99.90;;;;;;5059217;28;20273;-93
2022/08/31 05:47:35;;;;;;;8.07;5.00;;;22.40;99.90;;;;;;5060062;28;20556;-93
2022/08/31 05:50:10;;;;;;;7.53;4.90;;;22.30;99.90;;;;;;5060327;28;20207;-95
2022/08/31 05:52:42;;;;;;;5.90;4.83;;;22.30;99.90;;;;;;5059053;28;20231;-94
2022/08/31 05:55:13;;;;;;;6.87;4.80;;;22.30;99.90;;;;;;5058686;28;20231;-95
2022/08/31 05:57:44;;;;;;;6.83;4.73;;;22.30;99.90;;;;;;5059486;28;20231;-95
2022/08/31 06:00:19;;;;;;;6.07;4.43;;;22.20;99.90;;;;;;5060208;28;20224;-96
2022/08/31 06:02:52;;;;;;;6.60;4.93;;;22.20;99.90;;;;;;5065062;28;20211;-93
2022/08/31 06:05:27;;;;;;;5.97;4.50;;;22.20;99.90;;;;;;5059490;28;20228;-96
2022/08/31 06:07:58;;;;;;;7.20;5.17;;;22.20;99.90;;;;;;5058701;28;20208;-96
2022/08/31 06:10:33;;;;;;;5.53;4.40;;;22.10;99.90;;;;;;5059060;28;20327;-96
2022/08/31 06:13:05;;;;;;;6.53;4.60;;;22.10;99.90;;;;;;5059301;28;20721;-95
2022/08/31 06:15:37;;;;;;;8.00;4.93;;;22.10;99.90;;;;;;5060526;28;20268;-96
2022/08/31 06:18:11;;;;;;;9.40;4.93;;;22.10;99.90;;;;;;5042272;28;20203;-95
2022/08/31 06:20:45;;;;;;;6.73;4.57;;;22.10;99.90;;;;;;5060682;28;20228;-95
2022/08/31 06:23:17;;;;;;;5.40;4.80;;;22.10;99.90;;;;;;5062195;28;20204;-96
2022/08/31 06:25:49;;;;;;;5.57;4.57;;;22.00;99.90;;;;;;5063779;28;20206;-96
2022/08/31 06:28:19;;;;;;;7.40;4.37;;;22.00;99.90;;;;;;5057590;28;20203;-96
2022/08/31 06:30:52;;;;;;;7.37;4.70;;;22.00;99.90;;;;;;5057249;28;20193;-95
2022/08/31 06:33:25;;;;;;;5.60;4.30;;;21.90;99.90;;;;;;5054423;28;20221;-96
2022/08/31 06:35:58;;;;;;;5.07;4.53;;;22.00;99.90;;;;;;5042930;28;20228;-95
2022/08/31 06:38:29;;;;;;;6.80;4.40;;;22.00;99.90;;;;;;5038700;28;20751;-95
2022/08/31 06:41:01;;;;;;;4.53;3.90;;;21.90;99.90;;;;;;5038453;28;20705;-95
2022/08/31 06:43:32;;;;;;;8.93;4.10;;;21.90;99.90;;;;;;5036937;28;20209;-95
2022/08/31 06:46:04;;;;;;;6.13;4.23;;;21.90;99.90;;;;;;5037888;28;20282;-95
2022/08/31 06:48:35;;;;;;;5.53;3.70;;;21.80;99.90;;;;;;5037820;28;20271;-95
2022/08/31 06:51:12;;;;;;;4.97;3.90;;;21.80;99.90;;;;;;5037767;28;20681;-93
2022/08/31 06:53:43;;;;;;;5.23;3.70;;;21.80;99.90;;;;;;5036998;28;20205;-95
2022/08/31 06:56:16;;;;;;;4.10;3.70;;;21.70;99.90;;;;;;5037565;28;20204;-95
2022/08/31 06:58:50;;;;;;;5.53;3.90;;;21.60;99.90;;;;;;5039962;28;20289;-94
2022/08/31 07:01:27;;;;;;;5.43;4.27;;;21.60;99.90;;;;;;5039089;28;20328;-93
2022/08/31 07:04:07;;;;;;;8.83;3.93;;;21.60;99.90;;;;;;5037611;28;20258;-94
2022/08/31 07:06:43;;;;;;;4.83;4.00;;;21.50;99.90;;;;;;5046843;28;20193;-95
2022/08/31 07:09:28;;;;;;;5.13;4.13;;;21.60;99.90;;;;;;5028072;28;20242;-94
2022/08/31 07:12:00;;;;;;;5.17;3.67;;;21.50;99.90;;;;;;5057103;28;20216;-94
2022/08/31 07:14:30;;;;;;;7.40;4.33;;;21.50;99.90;;;;;;5057281;28;20200;-94
2022/08/31 07:17:03;;;;;;;7.57;3.83;;;21.40;99.90;;;;;;5040140;28;20223;-94
2022/08/31 07:19:34;;;;;;;4.10;3.70;;;21.40;99.90;;;;;;5063375;28;20884;-95
2022/08/31 07:22:12;;;;;;;5.63;3.70;;;21.30;99.90;;;;;;5062513;28;20245;-94
2022/08/31 07:24:45;;;;;;;5.47;3.97;;;21.30;99.90;;;;;;5056680;28;20269;-95
2022/08/31 07:27:17;;;;;;;5.10;3.50;;;21.20;99.90;;;;;;5038941;28;20207;-95
2022/08/31 07:29:48;;;;;;;7.37;3.90;;;21.20;99.90;;;;;;5056900;28;20280;-95
2022/08/31 07:32:20;;;;;;;4.30;3.63;;;21.20;99.90;;;;;;5056340;28;20200;-95
2022/08/31 07:34:52;;;;;;;4.53;3.50;;;21.20;99.90;;;;;;5056833;28;20518;-95
2022/08/31 07:43:10;;;;;;;4.70;4.03;;;21.10;99.90;;;;;;5055999;28;20590;-93
2022/08/31 07:45:42;;;;;;;5.70;3.73;;;21.00;99.90;;;;;;5055533;28;20215;-94
2022/08/31 07:48:15;;;;;;;4.87;3.80;;;20.90;99.90;;;;;;5059279;28;20578;-94
2022/08/31 07:50:46;;;;;;;5.90;3.83;;;20.90;99.90;;;;;;5056342;28;20237;-94
2022/08/31 07:53:19;;;;;;;6.13;3.47;;;20.80;99.90;;;;;;5057439;28;20298;-94
2022/08/31 07:55:54;;;;;;;5.43;3.90;;;20.80;99.90;;;;;;5060111;28;20211;-94
2022/08/31 07:58:26;;;;;;;5.60;3.77;;;20.80;99.90;;;;;;5059033;28;20521;-93
2022/08/31 08:06:20;;;;;;;4.63;3.70;;;20.80;99.90;;;;;;5011316;28;20208;-94
2022/08/31 08:08:53;;;;;;;4.60;3.40;;;20.80;99.90;;;;;;4999691;28;20236;-94
2022/08/31 08:11:48;;;;;;;3.40;3.10;;;20.80;99.90;;;;;;5021081;28;20217;-94
2022/08/31 08:14:20;;;;;;;4.67;3.20;;;20.70;99.90;;;;;;5016724;28;20655;-94
2022/08/31 08:16:54;;;;;;;4.10;3.40;;;20.70;99.90;;;;;;5016652;28;20216;-94
2022/08/31 08:19:26;;;;;;;5.03;3.10;;;20.70;99.90;;;;;;5017090;28;20275;-94
2022/08/31 08:21:58;;;;;;;4.17;3.30;;;20.60;99.90;;;;;;5015643;28;20237;-94
2022/08/31 08:24:32;;;;;;;4.60;3.23;;;20.60;99.90;;;;;;5016571;28;20296;-93
2022/08/31 08:27:04;;;;;;;4.30;2.93;;;20.60;99.90;;;;;;5016649;28;20217;-94
2022/08/31 08:29:36;;;;;;;5.33;3.00;;;20.50;99.90;;;;;;5019291;28;20221;-94
2022/08/31 08:32:08;;;;;;;4.90;3.47;;;20.50;99.90;;;;;;5015316;28;20225;-94
2022/08/31 08:34:46;;;;;;;3.97;3.30;;;20.50;99.90;;;;;;5018689;28;20244;-94
2022/08/31 08:37:19;;;;;;;3.40;2.90;;;20.50;99.90;;;;;;5016367;28;20244;-93
2022/08/31 08:40:22;;;;;;;3.27;2.90;;;20.50;99.90;;;;;;5015885;28;20209;-94
2022/08/31 08:42:54;;;;;;;3.10;2.80;;;20.40;99.90;;;;;;5015065;28;20217;-94
2022/08/31 08:45:26;;;;;;;5.63;3.13;;;20.60;99.90;;;;;;5016142;28;20625;-93
2022/08/31 08:47:57;;;;;;;2.63;2.43;;;20.40;99.90;;;;;;5016560;28;20205;-93
2022/08/31 08:50:30;;;;;;;3.87;3.00;;;20.40;99.90;;;;;;5016431;28;20217;-94
2022/08/31 08:53:04;;;;;;;4.23;2.70;;;20.30;99.90;;;;;;5015868;28;20210;-94
2022/08/31 08:55:39;;;;;;;5.93;2.80;;;20.20;99.90;;;;;;5016985;28;20226;-93
2022/08/31 08:58:17;;;;;;;5.00;3.37;;;20.20;99.90;;;;;;5020230;28;20213;-93
2022/08/31 09:00:52;;;;;;;3.53;3.20;;;20.20;99.90;;;;;;5020086;28;20267;-93
2022/08/31 09:03:32;;;;;;;6.17;3.00;;;20.20;99.90;;;;;;5018798;28;20608;-94
2022/08/31 09:06:08;;;;;;;5.53;3.13;;;20.10;99.90;;;;;;5024206;28;20217;-93
2022/08/31 09:09:19;;;;;;;4.07;3.17;;;20.10;99.90;;;;;;5022154;28;20264;-93
2022/08/31 09:12:03;;;;;;;3.33;2.73;;;20.10;99.90;;;;;;5153553;22;20236;-93
2022/08/31 09:14:52;;;;;;;5.30;3.20;;;20.10;99.90;;;;;;5041869;28;20232;-94
2022/08/31 09:17:39;;;;;;;5.33;2.97;;;20.10;99.90;;;;;;5059447;28;20231;-93
2022/08/31 09:20:12;;;;;;;4.47;2.97;;;20.00;99.90;;;;;;5059281;28;20216;-94
2022/08/31 09:22:49;;;;;;;5.40;3.80;;;20.00;99.90;;;;;;5058678;28;20205;-94
2022/08/31 09:25:28;;;;;;;7.10;3.17;;;20.00;99.90;;;;;;5059188;28;20212;-94
2022/08/31 09:28:03;;;;;;;4.17;3.20;;;19.90;99.90;;;;;;5059028;28;20231;-94
2022/08/31 09:30:49;;;;;;;5.13;3.47;;;20.00;99.90;;;;;;5058865;28;20593;-94
2022/08/31 09:33:23;;;;;;;3.73;3.30;;;20.00;99.90;;;;;;5058358;28;20212;-93
2022/08/31 09:36:13;;;;;;;3.87;3.27;;;19.90;99.90;;;;;;5059263;28;20227;-93
2022/08/31 09:38:46;;;;;;;3.93;3.07;;;19.90;99.90;;;;;;5059631;28;20213;-93
2022/08/31 09:41:32;;;;;;;3.40;2.90;;;19.90;99.90;;;;;;5058533;28;20255;-94
2022/08/31 09:44:22;;;;;;;3.67;3.00;;;19.90;99.90;;;;;;5058524;28;20208;-94
2022/08/31 09:46:58;;;;;;;3.57;3.13;;;19.90;99.90;;;;;;5039029;28;20217;-94
2022/08/31 09:49:32;;;;;;;5.73;3.20;;;19.80;99.90;;;;;;5038719;28;20212;-93
2022/08/31 09:55:12;;;;;;;4.67;2.87;;;19.80;99.90;;;;;;5038165;28;20268;-93
2022/08/31 09:55:20;;;;;;;4.57;3.47;;;19.80;99.90;;;;;;5038751;28;20250;-93
2022/08/31 09:57:57;;;;;;;4.83;3.27;;;19.70;99.90;;;;;;5038895;28;20640;-92
2022/08/31 10:00:37;;;;;;;4.10;3.30;;;19.60;99.90;;;;;;5039448;28;20222;-92
2022/08/31 10:03:17;;;;;;;5.03;3.60;;;19.70;99.90;;;;;;5036810;28;20213;-93
2022/08/31 10:05:53;;;;;;;5.90;3.67;;;19.70;99.90;;;;;;5038278;28;20224;-93
2022/08/31 10:08:42;;;;;;;5.33;3.40;;;19.70;99.90;;;;;;5037763;28;20232;-94
2022/08/31 10:11:16;;;;;;;8.27;4.23;;;19.70;99.90;;;;;;5038452;28;20267;-94
2022/08/31 10:13:55;;;;;;;5.47;3.80;;;19.70;99.90;;;;;;5040698;28;20217;-94
2022/08/31 10:16:36;;;;;;;5.47;3.40;;;19.70;99.90;;;;;;5042766;28;20224;-93
2022/08/31 10:19:10;;;;;;;7.43;3.67;;;19.60;99.90;;;;;;5037588;28;20212;-93
2022/08/31 10:21:50;;;;;;;5.23;3.70;;;19.60;99.90;;;;;;5037030;28;20263;-94
2022/08/31 10:24:32;;;;;;;5.17;3.87;;;19.60;99.90;;;;;;5038041;28;20196;-94
2022/08/31 10:27:13;;;;;;;7.40;3.93;;;19.50;99.90;;;;;;5037072;28;20201;-94
2022/08/31 10:29:55;;;;;;;6.93;3.80;;;19.60;99.90;;;;;;5037534;28;20239;-94
2022/08/31 10:32:37;;;;;;;4.53;3.60;;;19.50;99.90;;;;;;5036334;28;20205;-93
2022/08/31 10:35:13;;;;;;;4.30;3.90;;;19.50;99.90;;;;;;5037151;28;20216;-94
2022/08/31 10:37:53;;;;;;;4.63;4.23;;;19.40;99.90;;;;;;5036937;28;20251;-94
2022/08/31 10:40:32;;;;;;;4.60;4.20;;;19.40;99.90;;;;;;5037171;28;20558;-94
2022/08/31 10:43:12;;;;;;;7.13;3.97;;;19.40;99.90;;;;;;5035899;28;20323;-93
2022/08/31 10:45:46;;;;;;;9.93;4.33;;;19.30;99.90;;;;;;5036757;28;20234;-94
2022/08/31 10:48:23;;;;;;;5.27;4.17;;;19.30;99.90;;;;;;5037150;28;20213;-94
2022/08/31 10:51:04;;;;;;;7.27;4.57;;;19.30;99.90;;;;;;5036922;28;20287;-93
2022/08/31 10:53:57;;;;;;;5.70;4.30;;;19.30;99.90;;;;;;5036130;28;20205;-93
2022/08/31 10:56:38;;;;;;;4.90;4.40;;;19.30;99.90;;;;;;5036815;28;20228;-95
2022/08/31 10:59:20;;;;;;;5.73;4.33;;;19.30;99.90;;;;;;5036773;28;20683;-94
2022/08/31 11:02:02;;;;;;;5.40;4.30;;;19.20;99.90;;;;;;5035105;28;20640;-93
2022/08/31 11:04:54;;;;;;;7.73;4.50;;;19.10;99.90;;;;;;5036630;28;20289;-94
2022/08/31 11:07:39;;;;;;;7.23;5.10;;;19.10;99.90;;;;;;5035626;28;20216;-94
2022/08/31 11:10:22;;;;;;;5.47;4.90;;;19.00;99.90;;;;;;5035921;28;20208;-93
2022/08/31 11:12:57;;;;;;;7.87;4.83;;;19.00;99.90;;;;;;5036191;28;20232;-93
2022/08/31 11:15:51;;;;;;;7.90;4.97;;;18.90;99.90;;;;;;5036772;28;20228;-94
2022/08/31 11:18:53;;;;;;;5.50;4.90;;;19.00;99.90;;;;;;5036739;28;20277;-93
2022/08/31 11:22:01;;;;;;;7.10;5.30;;;19.00;99.90;;;;;;5036313;28;20235;-97
2022/08/31 11:25:02;;;;;;;7.77;5.17;;;18.90;99.90;;;;;;5036525;28;20213;-94
2022/08/31 11:27:40;;;;;;;6.17;5.07;;;19.00;99.90;;;;;;5038721;28;20212;-94
2022/08/31 11:30:23;;;;;;;5.83;5.33;;;19.00;99.90;;;;;;5036468;28;20206;-93
2022/08/31 11:32:56;;;;;;;6.23;5.10;;;19.00;99.90;;;;;;5035418;28;20216;-94
2022/08/31 11:35:59;;;;;;;7.17;5.40;;;19.00;99.90;;;;;;5041338;28;20228;-93
2022/08/31 11:38:48;;;;;;;6.47;5.10;;;18.90;99.90;;;;;;5040617;28;20586;-94
2022/08/31 11:41:37;;;;;;;6.60;5.47;;;18.90;99.90;;;;;;5041099;28;20228;-94
2022/08/31 11:44:10;;;;;;;5.77;5.07;;;19.00;99.90;;;;;;5035795;28;20227;-93
2022/08/31 11:47:03;;;;;;;9.00;5.33;;;18.90;99.90;;;;;;5018764;28;20216;-93
2022/08/31 11:49:48;;;;;;;6.00;5.43;;;18.90;99.90;;;;;;5017738;28;20205;-93
2022/08/31 11:52:39;;;;;;;6.43;5.73;;;18.90;99.90;;;;;;5015053;28;20575;-93
2022/08/31 11:55:28;;;;;;;7.33;5.50;;;19.00;99.90;;;;;;5016059;28;20244;-93
2022/08/31 11:58:30;;;;;;;6.00;5.40;;;18.80;99.90;;;;;;5015020;28;20669;-93
2022/08/31 12:01:24;;;;;;;7.33;5.60;;;18.80;99.90;;;;;;5015882;28;20213;-93
2022/08/31 12:04:02;;;;;;;6.50;5.10;;;18.90;99.90;;;;;;5015948;28;20307;-94
2022/08/31 12:07:09;;;;;;;6.70;5.43;;;18.90;99.90;;;;;;5016583;28;20618;-93
2022/08/31 12:09:57;;;;;;;7.93;5.53;;;18.90;99.90;;;;;;5016125;28;20295;-93
2022/08/31 12:13:06;;;;;;;6.70;5.33;;;18.90;99.90;;;;;;5014963;28;20218;-94
2022/08/31 12:15:59;;;;;;;5.90;5.30;;;18.90;99.90;;;;;;5028479;28;20205;-93
2022/08/31 12:19:02;;;;;;;8.23;5.80;;;18.90;99.90;;;;;;5035226;28;20219;-93
2022/08/31 12:24:46;;;;;;;6.33;5.47;;;18.80;99.90;;;;;;5035785;28;20250;-93
2022/08/31 12:27:31;;;;;;;6.03;5.10;;;18.90;99.90;;;;;;5035934;28;20284;-93
2022/08/31 12:30:19;;;;;;;8.13;6.17;;;18.90;99.90;;;;;;5036836;28;20306;-93
2022/08/31 12:32:59;;;;;;;7.57;6.10;;;18.90;99.90;;;;;;5038993;28;20201;-94
2022/08/31 12:35:32;;;;;;;8.67;6.90;;;19.00;99.90;;;;;;5039638;28;20200;-94
2022/08/31 12:38:07;;;;;;;7.63;6.10;;;19.10;99.90;;;;;;5039526;28;20343;-93
2022/08/31 12:40:45;;;;;;;10.80;6.10;;;19.30;99.90;;;;;;5039378;28;20610;-93
2022/08/31 12:43:20;;;;;;;10.27;6.57;;;19.30;99.90;;;;;;5041874;28;20294;-94
2022/08/31 12:46:22;;;;;;;8.73;6.43;;;19.20;99.90;;;;;;5039625;28;20208;-94
2022/08/31 12:49:22;;;;;;;9.17;7.07;;;19.10;99.90;;;;;;5039784;28;20216;-94
2022/08/31 12:52:00;;;;;;;7.90;6.10;;;18.90;99.90;;;;;;5037880;28;20239;-94
2022/08/31 12:55:06;;;;;;;7.23;6.00;;;18.90;99.90;;;;;;5039496;28;20216;-92
2022/08/31 12:57:54;;;;;;;7.60;5.90;;;18.90;99.90;;;;;;5039262;28;20208;-94
2022/08/31 13:00:28;;;;;;;6.63;5.33;;;19.00;99.90;;;;;;5038940;28;20625;-93
2022/08/31 13:03:03;;;;;;;7.47;5.33;;;19.00;99.90;;;;;;5038634;28;20650;-94
2022/08/31 13:05:38;;;;;;;8.30;5.80;;;19.10;99.90;;;;;;5039458;28;20223;-93
2022/08/31 13:08:22;;;;;;;7.40;5.70;;;19.10;99.90;;;;;;5040843;28;20232;-94
2022/08/31 13:10:53;;;;;;;5.97;4.27;;;19.10;99.90;;;;;;5037487;28;20217;-93
2022/08/31 13:13:26;;;;;;;4.20;3.80;;;19.30;99.90;;;;;;5041509;28;20224;-93
2022/08/31 13:16:03;;;;;;;6.43;4.23;;;19.40;99.90;;;;;;5042552;28;20205;-93
2022/08/31 13:18:36;;;;;;;5.13;4.20;;;19.40;99.90;;;;;;5041613;28;20263;-93
2022/08/31 13:21:09;;;;;;;4.80;4.37;;;19.40;99.90;;;;;;5039040;28;20665;-93
2022/08/31 13:23:46;;;;;;;4.07;3.73;;;19.40;99.90;;;;;;5037806;28;20244;-93
2022/08/31 13:26:22;;;;;;;5.03;3.70;;;19.30;99.90;;;;;;5039157;28;20216;-93
2022/08/31 13:28:56;;;;;;;5.27;4.03;;;19.40;99.90;;;;;;5038295;28;20212;-93
2022/08/31 13:31:29;;;;;;;6.57;4.20;;;19.40;99.90;;;;;;5086538;22;20276;-93
2022/08/31 13:34:01;;;;;;;6.93;4.10;;;19.30;99.90;;;;;;5078624;28;20237;-93
2022/08/31 13:36:38;;;;;;;6.63;4.33;;;19.30;99.90;;;;;;5080654;28;20211;-92
2022/08/31 13:39:16;;;;;;;5.53;4.20;;;19.30;99.90;;;;;;5077889;28;20203;-93
2022/08/31 13:42:05;;;;;;;5.90;4.00;;;19.20;99.90;;;;;;5076303;28;20226;-93
2022/08/31 13:44:41;;;;;;;5.43;4.73;;;19.20;99.90;;;;;;5083932;28;20247;-93
2022/08/31 13:47:17;;;;;;;6.20;4.20;;;19.20;99.90;;;;;;5080743;28;20207;-96
2022/08/31 13:49:52;;;;;;;6.73;5.13;;;19.10;99.90;;;;;;5080514;28;20656;-93
2022/08/31 13:52:29;;;;;;;6.57;5.50;;;19.10;99.90;;;;;;5077525;28;20211;-94
2022/08/31 13:55:12;;;;;;;6.93;5.47;;;19.20;99.90;;;;;;5077753;28;20256;-93
2022/08/31 13:57:58;;;;;;;6.67;4.93;;;19.20;99.90;;;;;;5078205;28;20273;-94
2022/08/31 14:00:39;;;;;;;8.03;5.67;;;19.20;99.90;;;;;;5078077;28;20233;-93
2022/08/31 14:03:33;;;;;;;7.17;5.90;;;19.10;99.90;;;;;;5076762;28;20235;-94
2022/08/31 14:06:20;;;;;;;6.50;5.87;;;19.10;99.90;;;;;;5078150;28;20215;-93
2022/08/31 14:08:59;;;;;;;8.30;6.77;;;19.00;99.90;;;;;;5061345;28;20231;-93
2022/08/31 14:11:32;;;;;;;7.00;6.30;;;19.00;99.90;;;;;;5057350;28;20220;-93
2022/08/31 14:14:07;;;;;;;9.60;6.60;;;19.00;99.90;;;;;;5061095;28;20706;-93
2022/08/31 14:16:41;;;;;;;7.90;5.87;;;19.10;99.90;;;;;;5037731;28;20221;-94
2022/08/31 14:19:39;;;;;;;6.50;5.80;;;19.20;99.90;;;;;;5043181;28;20284;-93
2022/08/31 14:22:26;;;;;;;7.20;6.27;;;19.20;99.90;;;;;;5048365;28;20209;-93
2022/08/31 14:25:11;;;;;;;7.07;6.33;;;19.30;99.90;;;;;;5042986;28;20240;-93
2022/08/31 14:27:42;;;;;;;7.00;5.80;;;19.30;99.90;;;;;;5032306;28;20235;-93
2022/08/31 14:30:19;;;;;;;9.47;5.93;;;19.40;99.90;;;;;;5047589;28;20236;-93
2022/08/31 14:35:54;;;;;;;6.93;5.80;;;19.40;99.90;;;;;;5069406;28;20200;-93
2022/08/31 14:41:41;;;;;;;8.47;5.97;;;19.40;99.90;;;;;;5069757;28;20236;-97
2022/08/31 14:44:28;;;;;;;8.17;6.43;;;19.50;99.90;;;;;;5070218;28;20231;-93
2022/08/31 14:52:59;;;;;;;11.90;8.40;;;19.60;99.90;;;;;;5067995;28;20231;-93
2022/08/31 14:55:33;;;;;;;9.53;7.93;;;19.60;99.90;;;;;;5052602;28;20261;-94
2022/08/31 14:58:22;;;;;;;10.33;7.97;;;19.70;99.90;;;;;;5074476;28;20279;-94
2022/08/31 15:00:54;;;;;;;9.47;8.20;;;19.70;99.90;;;;;;5065260;28;20238;-94
2022/08/31 15:03:29;;;;;;;13.23;8.90;;;19.90;99.90;;;;;;5049056;28;20228;-94
2022/08/31 15:06:03;;;;;;;12.53;9.13;;;20.00;99.90;;;;;;5071281;28;20210;-93
2022/08/31 15:11:23;;;;;;;11.80;7.63;;;20.10;99.90;;;;;;5066216;28;20196;-97
2022/08/31 15:14:11;;;;;;;11.37;8.70;;;20.20;99.90;;;;;;5069581;28;20200;-94
2022/08/31 15:16:45;;;;;;;10.23;7.90;;;20.40;99.90;;;;;;5049876;28;20276;-94
2022/08/31 15:19:17;;;;;;;10.50;8.77;;;20.50;99.90;;;;;;5040182;28;20208;-94
2022/08/31 15:21:51;;;;;;;12.70;8.97;;;20.70;99.90;;;;;;5040914;28;20735;-94
2022/08/31 15:24:32;;;;;;;12.70;8.63;;;20.80;99.90;;;;;;5041083;28;20288;-93
2022/08/31 15:27:06;;;;;;;10.43;8.20;;;20.90;99.90;;;;;;5037009;28;20201;-94
2022/08/31 15:29:39;;;;;;;12.27;8.23;;;21.00;99.90;;;;;;5041838;28;20224;-93
2022/08/31 15:32:15;;;;;;;12.30;9.10;;;21.10;99.90;;;;;;5038434;28;20604;-93